Time;durP1;ratioP1;P1;durP2;ratioP2;P2;SDS_P1;SDS_P2;PMS_P1;PMS_P2;Temp;Humidity;BMP_temperature;BMP_pressure;BME280_temperature;BME280_humidity;BME280_pressure;Samples;Min_cycle;Max_cycle;Signal;HPM_P1;HPM_P2
2024/02/07 00:00:08;;;;;;;17.85;9.93;;;;;;;5.00;58.32;99915.84;5027022;28;20029;-77
2024/02/07 00:02:34;;;;;;;60.22;26.20;;;;;;;5.21;57.97;99918.53;5028577;28;20047;-77
2024/02/07 00:04:59;;;;;;;84.22;34.25;;;;;;;4.99;58.54;99932.72;5027111;28;20441;-77
2024/02/07 00:07:25;;;;;;;27.48;12.55;;;;;;;4.68;58.68;99944.31;5027907;28;20035;-78
2024/02/07 00:09:51;;;;;;;21.92;11.23;;;;;;;4.75;58.16;99923.28;5020492;28;20444;-77
2024/02/07 00:12:17;;;;;;;19.52;10.07;;;;;;;4.91;58.51;99953.97;5010759;28;20045;-78
2024/02/07 00:14:43;;;;;;;30.00;13.77;;;;;;;5.21;57.88;99929.09;5022254;28;20187;-78
2024/02/07 00:17:09;;;;;;;25.13;12.93;;;;;;;5.55;56.37;99917.00;5026635;28;20124;-77
2024/02/07 00:19:34;;;;;;;31.38;15.52;;;;;;;4.81;58.61;99941.84;5021434;28;20051;-77
2024/02/07 00:21:59;;;;;;;29.88;13.82;;;;;;;4.96;57.60;99904.00;5046913;28;20095;-78
2024/02/07 00:24:25;;;;;;;17.42;8.55;;;;;;;5.40;56.91;99913.63;5026698;28;20037;-78
2024/02/07 00:26:50;;;;;;;24.95;8.98;;;;;;;5.30;56.94;99931.63;5018557;28;20045;-77
2024/02/07 00:29:16;;;;;;;16.83;8.38;;;;;;;5.04;57.35;99927.66;5020795;28;20154;-78
2024/02/07 00:31:41;;;;;;;15.57;7.82;;;;;;;5.38;56.50;99907.72;5016242;28;20453;-77
2024/02/07 00:34:06;;;;;;;15.15;7.43;;;;;;;5.46;56.48;99918.16;5014390;28;20144;-77
2024/02/07 00:36:32;;;;;;;18.08;9.25;;;;;;;5.50;56.43;99923.91;5019523;28;20049;-78
2024/02/07 00:38:58;;;;;;;15.15;8.43;;;;;;;5.76;56.90;99945.31;5021254;28;20141;-79
2024/02/07 00:41:25;;;;;;;15.90;7.43;;;;;;;5.27;57.72;99937.28;5021305;28;20480;-78
2024/02/07 00:43:52;;;;;;;13.40;7.03;;;;;;;5.35;57.58;99935.34;5027418;28;20105;-78
2024/02/07 00:46:18;;;;;;;13.65;7.47;;;;;;;5.53;57.26;99940.19;5027185;28;20469;-78
2024/02/07 00:48:44;;;;;;;14.40;7.68;;;;;;;5.35;57.33;99918.66;5026147;28;20094;-78
2024/02/07 00:51:11;;;;;;;13.95;7.15;;;;;;;5.59;56.13;99936.78;5027193;28;20422;-78
2024/02/07 00:53:37;;;;;;;13.60;6.47;;;;;;;4.89;58.32;99909.22;5027488;28;20035;-77
2024/02/07 00:56:02;;;;;;;12.93;6.72;;;;;;;4.63;59.41;99928.19;5022441;28;20022;-79
2024/02/07 00:58:28;;;;;;;14.95;6.93;;;;;;;3.82;63.24;99939.41;5015193;28;20052;-78
2024/02/07 01:00:53;;;;;;;14.23;6.97;;;;;;;4.20;61.58;99930.66;5011425;28;20041;-78
2024/02/07 01:03:20;;;;;;;15.05;7.25;;;;;;;4.85;59.56;99923.00;5026739;28;20040;-78
2024/02/07 01:05:46;;;;;;;13.57;7.28;;;;;;;5.17;58.86;99938.41;5027036;28;20140;-78
2024/02/07 01:08:11;;;;;;;15.27;7.65;;;;;;;5.14;58.26;99911.53;5026595;28;20037;-77
2024/02/07 01:10:38;;;;;;;16.02;8.20;;;;;;;5.41;58.36;99936.41;5025809;28;20030;-78
2024/02/07 01:13:04;;;;;;;20.38;8.70;;;;;;;5.64;56.72;99909.78;5017911;28;20025;-78
2024/02/07 01:15:29;;;;;;;15.43;8.70;;;;;;;5.39;56.67;99894.31;5024514;28;20048;-78
2024/02/07 01:17:55;;;;;;;17.67;7.60;;;;;;;4.93;56.67;99909.66;5021826;28;20112;-78
2024/02/07 01:20:20;;;;;;;16.65;7.88;;;;;;;4.91;57.40;99927.53;5020828;28;20472;-78
2024/02/07 01:22:46;;;;;;;15.68;7.45;;;;;;;5.11;56.22;99904.78;5025278;28;20120;-78
2024/02/07 01:25:12;;;;;;;13.77;7.10;;;;;;;5.04;56.27;99911.81;5016002;28;20037;-78
2024/02/07 01:27:38;;;;;;;17.15;7.70;;;;;;;4.87;57.04;99937.66;5018961;28;20529;-78
2024/02/07 01:30:04;;;;;;;15.32;8.02;;;;;;;4.46;58.08;99905.63;5021628;28;20044;-78
2024/02/07 01:32:30;;;;;;;21.55;10.30;;;;;;;5.23;56.08;99916.50;5026591;28;20505;-78
2024/02/07 01:34:55;;;;;;;15.40;8.27;;;;;;;5.12;56.59;99903.78;5027339;28;20052;-78
2024/02/07 01:37:21;;;;;;;15.48;7.97;;;;;;;4.51;58.04;99905.88;5026907;28;20670;-78
2024/02/07 01:39:46;;;;;;;14.65;7.55;;;;;;;4.70;58.21;99917.72;5044001;28;20055;-78
2024/02/07 01:42:12;;;;;;;16.08;7.20;;;;;;;4.46;58.34;99909.09;5047182;28;20036;-79
2024/02/07 01:44:38;;;;;;;15.43;7.65;;;;;;;4.18;59.24;99916.81;5041875;28;20465;-78
2024/02/07 01:47:14;;;;;;;15.10;7.68;;;;;;;4.02;60.19;99918.63;5025587;28;20452;-78
2024/02/07 01:49:51;;;;;;;14.02;7.63;;;;;;;3.93;60.27;99914.41;5030953;28;20486;-78
2024/02/07 01:52:19;;;;;;;16.83;8.20;;;;;;;3.54;61.59;99918.03;5031117;28;20104;-78
2024/02/07 01:54:45;;;;;;;13.90;7.65;;;;;;;3.60;61.62;99890.97;5030861;28;20021;-78
2024/02/07 01:57:11;;;;;;;19.33;8.98;;;;;;;4.05;60.28;99903.44;5030469;28;20025;-78
2024/02/07 01:59:38;;;;;;;16.90;8.52;;;;;;;3.15;64.08;99907.63;5029156;28;20057;-78
2024/02/07 02:02:07;;;;;;;15.48;7.63;;;;;;;3.86;62.22;99908.19;5030637;28;20105;-78
2024/02/07 02:04:33;;;;;;;16.30;9.77;;;;;;;4.20;61.01;99917.44;5030354;28;20406;-77
2024/02/07 02:06:59;;;;;;;14.15;8.95;;;;;;;4.38;61.46;99923.19;5030302;28;20482;-78
2024/02/07 02:09:25;;;;;;;23.48;10.85;;;;;;;4.45;60.46;99925.09;5029000;28;20072;-78
2024/02/07 02:11:52;;;;;;;22.30;11.60;;;;;;;4.45;60.05;99928.56;5030071;28;20022;-78
2024/02/07 02:14:18;;;;;;;14.95;8.43;;;;;;;4.52;58.77;99886.41;5030009;28;20053;-78
2024/02/07 02:16:43;;;;;;;17.23;9.05;;;;;;;3.92;60.76;99933.88;5030235;28;20034;-78
2024/02/07 02:19:09;;;;;;;16.63;8.05;;;;;;;3.87;61.53;99920.41;5037647;28;20032;-77
2024/02/07 02:22:06;;;;;;;15.25;7.70;;;;;;;4.30;59.82;99931.19;5049961;28;20082;-78
2024/02/07 02:25:12;;;;;;;15.57;8.35;;;;;;;4.73;59.97;99902.31;5048007;28;20586;-78
2024/02/07 02:27:37;;;;;;;14.52;8.07;;;;;;;4.89;58.72;99921.63;5010536;28;20041;-77
2024/02/07 02:30:19;;;;;;;15.27;8.75;;;;;;;4.02;60.13;99894.88;5027307;28;20033;-77
2024/02/07 02:32:48;;;;;;;13.27;7.78;;;;;;;4.39;60.80;99898.44;5030117;28;20036;-77
2024/02/07 02:35:18;;;;;;;18.52;9.07;;;;;;;4.50;59.88;99904.28;5029820;28;20036;-78
2024/02/07 02:37:45;;;;;;;20.50;7.93;;;;;;;4.50;59.26;99896.34;5029896;28;20084;-78
2024/02/07 02:40:11;;;;;;;15.40;7.85;;;;;;;4.68;59.93;99895.94;5029478;28;20022;-77
2024/02/07 02:42:37;;;;;;;15.63;7.88;;;;;;;4.73;59.17;99902.31;5028449;28;20036;-77
2024/02/07 02:45:03;;;;;;;15.15;7.70;;;;;;;4.77;59.95;99911.50;5029895;28;20025;-77
2024/02/07 02:47:28;;;;;;;14.75;7.53;;;;;;;3.54;62.87;99881.13;5029794;28;20083;-78
2024/02/07 02:49:55;;;;;;;12.85;7.60;;;;;;;3.10;63.69;99905.47;5041422;28;20029;-78
2024/02/07 02:52:22;;;;;;;15.27;8.23;;;;;;;2.45;65.24;99890.81;5049163;28;20545;-77
2024/02/07 02:54:49;;;;;;;16.30;6.97;;;;;;;1.75;67.77;99897.56;5049604;28;20045;-77
2024/02/07 02:57:16;;;;;;;12.27;6.47;;;;;;;2.08;67.84;99908.03;5031656;28;20503;-78
2024/02/07 02:59:43;;;;;;;13.83;6.60;;;;;;;1.99;68.57;99880.94;5029560;28;20041;-77
2024/02/07 03:02:09;;;;;;;16.90;7.10;;;;;;;2.41;67.17;99902.69;5029595;28;20108;-77
2024/02/07 03:04:51;;;;;;;18.00;9.50;;;;;;;2.59;67.60;99889.28;5029159;28;20081;-78
2024/02/07 03:10:08;;;;;;;22.95;13.98;;;;;;;2.45;69.29;99872.41;5014993;28;20638;-78
2024/02/07 03:12:33;;;;;;;25.90;13.45;;;;;;;3.28;68.42;99904.41;5027862;28;20790;-77
2024/02/07 03:14:59;;;;;;;26.23;13.13;;;;;;;3.61;68.02;99895.22;5029359;28;20540;-77
2024/02/07 03:17:24;;;;;;;29.40;15.73;;;;;;;3.41;68.05;99872.97;5027835;28;20410;-76
2024/02/07 03:19:50;;;;;;;31.15;17.23;;;;;;;3.82;66.28;99899.00;5029266;28;20402;-77
2024/02/07 03:22:15;;;;;;;31.95;17.05;;;;;;;3.70;66.36;99895.16;5029115;28;20402;-78
2024/02/07 03:24:41;;;;;;;43.72;27.27;;;;;;;3.63;66.76;99898.50;5028162;28;20036;-78
2024/02/07 03:27:07;;;;;;;45.15;23.27;;;;;;;3.91;65.86;99879.47;5029228;28;20037;-78
2024/02/07 03:29:33;;;;;;;31.08;15.70;;;;;;;3.76;66.17;99878.63;5027380;28;20052;-77
2024/02/07 03:32:01;;;;;;;29.83;19.38;;;;;;;3.69;65.84;99877.72;5029131;28;20037;-77
2024/02/07 03:34:26;;;;;;;39.45;22.00;;;;;;;3.87;66.15;99872.91;5028776;28;20502;-78
2024/02/07 03:36:51;;;;;;;24.38;15.07;;;;;;;3.86;65.61;99887.09;5027755;28;20037;-78
2024/02/07 03:39:17;;;;;;;23.23;14.30;;;;;;;3.85;66.47;99892.56;5038263;28;20026;-78
2024/02/07 03:41:42;;;;;;;25.00;12.73;;;;;;;3.96;65.76;99882.41;5028781;28;20029;-81
2024/02/07 03:44:12;;;;;;;22.27;10.98;;;;;;;3.92;65.91;99870.53;5027528;28;20558;-78
2024/02/07 03:46:40;;;;;;;41.65;24.13;;;;;;;4.02;65.49;99860.59;5028489;28;20029;-79
2024/02/07 03:49:07;;;;;;;;;;;;;;;4.08;66.25;99895.16;5028877;28;20555;-77
2024/02/07 03:51:35;;;;;;;23.17;13.35;;;;;;;3.73;66.45;99871.06;5036445;28;19917;-78
2024/02/07 03:54:09;;;;;;;22.75;12.13;;;;;;;3.82;64.94;99848.88;5038971;28;20529;-78
2024/02/07 03:56:35;;;;;;;27.40;12.98;;;;;;;3.79;65.52;99888.81;5036557;28;20405;-78
2024/02/07 03:59:02;;;;;;;85.40;49.55;;;;;;;3.80;66.01;99877.25;5037979;28;20493;-78
2024/02/07 04:01:28;;;;;;;29.63;17.35;;;;;;;3.30;66.55;99844.41;5036590;28;20021;-78
2024/02/07 04:03:54;;;;;;;34.28;19.08;;;;;;;3.73;65.91;99879.81;5040431;28;20110;-78
2024/02/07 04:06:19;;;;;;;78.25;41.97;;;;;;;3.48;66.82;99879.19;5044814;28;20083;-79
2024/02/07 04:08:45;;;;;;;38.72;24.10;;;;;;;3.62;65.64;99877.59;5039233;28;20238;-79
2024/02/07 05:16:19;;;;;;;30.13;16.58;;;;;;;2.71;67.30;99850.25;5031395;28;20109;-78
2024/02/07 05:18:45;;;;;;;65.55;38.25;;;;;;;2.80;67.25;99871.09;5028324;28;20120;-78
2024/02/07 05:21:12;;;;;;;63.75;38.28;;;;;;;2.56;69.23;99877.28;5028946;28;20644;-78
2024/02/07 05:23:38;;;;;;;29.98;18.17;;;;;;;2.54;71.41;99895.06;5026836;28;20046;-79
2024/02/07 05:26:05;;;;;;;28.40;14.77;;;;;;;2.25;71.08;99858.84;5028964;28;20506;-79
2024/02/07 05:28:30;;;;;;;25.23;14.60;;;;;;;2.42;71.06;99888.53;5034719;28;20171;-78
2024/02/07 05:30:56;;;;;;;28.33;18.33;;;;;;;2.27;70.22;99848.97;5051277;28;20025;-77
2024/02/07 05:33:21;;;;;;;32.42;21.08;;;;;;;2.90;68.76;99891.09;5036862;28;20025;-79
2024/02/07 05:35:47;;;;;;;26.98;15.38;;;;;;;2.74;68.56;99892.84;5037700;28;20501;-79
2024/02/07 05:38:12;;;;;;;28.52;14.55;;;;;;;2.93;68.21;99891.59;5037375;28;20475;-79
2024/02/07 05:40:37;;;;;;;28.55;15.00;;;;;;;2.75;68.79;99909.47;5038544;28;20025;-79
2024/02/07 05:43:03;;;;;;;34.15;15.43;;;;;;;2.76;69.21;99905.84;5038295;28;20047;-78
2024/02/07 05:45:28;;;;;;;26.92;15.07;;;;;;;2.32;70.57;99908.97;5036748;28;20120;-78
2024/02/07 05:47:55;;;;;;;32.88;16.42;;;;;;;2.60;70.30;99904.91;5037405;28;20469;-77
2024/02/07 05:50:20;;;;;;;32.78;17.38;;;;;;;2.79;69.40;99916.84;5037502;28;20060;-78
2024/02/07 05:52:46;;;;;;;28.17;14.60;;;;;;;3.05;67.10;99881.50;5036894;28;20037;-77
2024/02/07 05:55:11;;;;;;;58.17;28.73;;;;;;;3.17;67.08;99893.25;5036278;28;20022;-78
2024/02/07 05:57:37;;;;;;;60.70;27.75;;;;;;;3.04;67.33;99892.19;5035102;28;20037;-78
2024/02/07 06:00:08;;;;;;;34.60;18.77;;;;;;;3.44;66.69;99925.38;5034742;28;20040;-79
2024/02/07 06:02:35;;;;;;;31.48;16.38;;;;;;;3.63;66.37;99903.78;5048236;28;20033;-78
2024/02/07 06:05:03;;;;;;;73.30;37.75;;;;;;;3.97;65.21;99920.97;5054404;28;20041;-78
2024/02/07 06:07:30;;;;;;;82.72;38.92;;;;;;;4.27;64.73;99928.94;5051210;28;20087;-78
2024/02/07 06:09:56;;;;;;;327.17;149.20;;;;;;;4.51;62.87;99934.94;5030006;28;20036;-78
2024/02/07 06:12:22;;;;;;;136.43;85.63;;;;;;;4.25;64.22;99928.31;5029077;28;20076;-78
2024/02/07 06:14:47;;;;;;;84.68;48.63;;;;;;;4.30;64.14;99925.91;5028457;28;20049;-79
2024/02/07 06:17:13;;;;;;;66.70;35.30;;;;;;;4.12;65.23;99925.44;5028562;28;20544;-79
2024/02/07 06:19:38;;;;;;;214.10;90.22;;;;;;;3.85;65.32;99890.75;5027151;28;20045;-78
2024/02/07 06:22:05;;;;;;;38.85;20.35;;;;;;;4.02;65.41;99918.63;5027277;28;20057;-79
2024/02/07 06:24:30;;;;;;;35.40;17.27;;;;;;;4.27;64.68;99931.56;5026787;28;20037;-79
2024/02/07 06:26:57;;;;;;;34.53;18.25;;;;;;;4.05;67.22;99927.19;5026983;28;20026;-79
2024/02/07 06:29:22;;;;;;;39.10;20.92;;;;;;;3.90;68.62;99903.38;5026489;28;20056;-78
2024/02/07 06:31:47;;;;;;;56.17;30.45;;;;;;;4.31;68.37;99924.94;5029214;28;20506;-79
2024/02/07 06:34:13;;;;;;;46.55;26.20;;;;;;;4.42;69.15;99892.78;5026547;28;20113;-78
2024/02/07 06:36:38;;;;;;;50.42;25.67;;;;;;;4.12;69.81;99904.34;5028571;28;20029;-79
2024/02/07 06:39:04;;;;;;;36.40;20.13;;;;;;;4.50;69.23;99922.75;5029776;28;20086;-78
2024/02/07 06:41:29;;;;;;;33.40;21.65;;;;;;;4.57;69.20;99884.84;5028600;28;20025;-78
2024/02/07 06:43:55;;;;;;;33.78;19.40;;;;;;;5.42;66.91;99908.97;5028899;28;20038;-78
2024/02/07 06:46:20;;;;;;;30.48;17.27;;;;;;;5.31;67.60;99927.97;5028558;28;20029;-78
2024/02/07 06:48:46;;;;;;;31.88;17.60;;;;;;;5.77;66.23;99932.88;5028747;28;20049;-78
2024/02/07 06:51:11;;;;;;;36.85;21.88;;;;;;;6.04;63.45;99945.34;5030070;28;20083;-79
2024/02/07 06:53:36;;;;;;;79.60;41.10;;;;;;;6.27;60.19;99924.94;5030968;28;20029;-78
2024/02/07 06:56:02;;;;;;;88.32;41.72;;;;;;;6.70;59.21;99932.69;5029727;28;20145;-78
2024/02/07 06:58:30;;;;;;;70.50;38.67;;;;;;;6.87;57.74;99931.38;5029269;28;20537;-79
2024/02/07 07:00:57;;;;;;;71.27;38.27;;;;;;;7.16;56.73;99945.34;5029470;28;20414;-79
2024/02/07 07:03:25;;;;;;;83.95;49.45;;;;;;;7.24;57.00;99951.28;5029713;28;20284;-79
2024/02/07 07:05:50;;;;;;;76.03;44.00;;;;;;;7.39;55.61;99910.50;5027985;28;20041;-78
2024/02/07 07:08:16;;;;;;;37.08;20.08;;;;;;;7.41;56.39;99924.38;5028332;28;20026;-78
2024/02/07 07:10:42;;;;;;;66.93;26.75;;;;;;;7.69;55.51;99941.97;5048995;28;20117;-79
2024/02/07 07:13:08;;;;;;;33.97;22.90;;;;;;;7.68;54.81;99929.72;5035851;28;20034;-79
2024/02/07 07:15:33;;;;;;;29.55;17.25;;;;;;;7.75;54.82;99946.47;5029060;28;20045;-78
2024/02/07 07:17:58;;;;;;;42.67;31.17;;;;;;;7.98;55.01;99941.56;5029647;28;20021;-78
2024/02/07 07:20:24;;;;;;;67.30;47.47;;;;;;;8.14;54.37;99928.91;5027985;28;20411;-78
2024/02/07 07:22:50;;;;;;;40.80;27.70;;;;;;;8.21;54.72;99946.47;5028330;28;20475;-78
2024/02/07 07:25:15;;;;;;;108.00;59.45;;;;;;;8.44;52.74;99942.59;5029724;28;20080;-78
2024/02/07 07:27:41;;;;;;;43.40;26.50;;;;;;;8.42;53.38;99948.09;5028118;28;20133;-77
2024/02/07 07:30:07;;;;;;;35.50;23.08;;;;;;;8.42;54.03;99942.78;5027494;28;20067;-78
2024/02/07 07:32:32;;;;;;;41.75;27.02;;;;;;;8.27;54.58;99920.91;5029768;28;20075;-78
2024/02/07 07:34:57;;;;;;;53.95;32.58;;;;;;;8.53;54.75;99930.69;5027846;28;20029;-78
2024/02/07 07:37:23;;;;;;;70.22;35.33;;;;;;;9.06;53.63;99921.69;5028795;28;20108;-78
2024/02/07 07:39:49;;;;;;;55.30;33.20;;;;;;;9.57;51.91;99923.44;5028746;28;20068;-78
2024/02/07 07:42:15;;;;;;;72.10;40.10;;;;;;;9.82;51.39;99922.63;5028429;28;20512;-78
2024/02/07 07:44:42;;;;;;;80.50;45.15;;;;;;;9.98;51.00;99919.44;5029100;28;20033;-78
2024/02/07 07:47:07;;;;;;;59.22;36.13;;;;;;;9.57;50.97;99891.50;5028653;28;20032;-77
2024/02/07 07:49:33;;;;;;;41.28;21.73;;;;;;;9.76;51.74;99907.53;5027559;28;20037;-77
2024/02/07 07:51:58;;;;;;;93.13;52.17;;;;;;;10.00;50.77;99911.22;5027071;28;20112;-77
2024/02/07 07:54:24;;;;;;;25.10;14.68;;;;;;;10.22;51.59;99904.44;5027084;28;20041;-78
2024/02/07 07:56:49;;;;;;;29.00;17.23;;;;;;;10.45;49.64;99914.47;5029132;28;20037;-78
2024/02/07 07:59:15;;;;;;;62.83;38.15;;;;;;;10.48;50.42;99907.88;5028484;28;20175;-77
2024/02/07 08:01:42;;;;;;;30.10;15.00;;;;;;;11.00;49.74;99920.84;5028629;28;20086;-78
2024/02/07 08:04:08;;;;;;;28.17;14.25;;;;;;;11.11;50.74;99901.38;5027102;28;20076;-77
2024/02/07 08:06:33;;;;;;;24.70;13.77;;;;;;;10.97;50.25;99922.09;5027075;28;20067;-77
2024/02/07 08:08:59;;;;;;;25.02;13.43;;;;;;;11.17;49.39;99921.81;5026850;28;20029;-77
2024/02/07 08:11:24;;;;;;;42.65;26.77;;;;;;;11.51;49.10;99900.81;5027952;28;20030;-77
2024/02/07 08:13:50;;;;;;;39.42;22.67;;;;;;;11.36;47.25;99901.25;5026867;28;20589;-77
2024/02/07 08:16:16;;;;;;;40.60;24.90;;;;;;;11.85;46.71;99906.47;5027887;28;20033;-77
2024/02/07 08:18:42;;;;;;;37.85;21.45;;;;;;;12.30;45.22;99897.03;5028115;28;20140;-78
2024/02/07 08:21:09;;;;;;;29.42;16.13;;;;;;;12.22;44.33;99892.91;5060102;28;20430;-78
2024/02/07 08:23:34;;;;;;;31.73;17.63;;;;;;;12.68;43.35;99914.44;5027992;28;20036;-78
2024/02/07 08:26:00;;;;;;;26.83;14.65;;;;;;;12.62;43.79;99889.44;5027971;28;20038;-78
2024/02/07 08:28:25;;;;;;;31.60;17.15;;;;;;;12.79;42.29;99909.06;5027939;28;20095;-78
2024/02/07 08:30:51;;;;;;;24.80;14.38;;;;;;;12.42;42.50;99904.03;5026828;28;20030;-78
2024/02/07 08:33:16;;;;;;;23.25;13.63;;;;;;;12.43;42.61;99900.28;5029995;28;20415;-77
2024/02/07 08:35:42;;;;;;;22.13;14.13;;;;;;;12.66;42.60;99898.63;5027652;28;20537;-77
2024/02/07 08:38:07;;;;;;;22.45;12.95;;;;;;;12.68;43.28;99882.34;5028126;28;20120;-77
2024/02/07 08:40:32;;;;;;;18.48;12.35;;;;;;;12.84;41.92;99905.66;5027592;28;20025;-78
2024/02/07 08:43:03;;;;;;;172.68;93.25;;;;;;;12.95;40.65;99864.66;5027851;28;20088;-78
2024/02/07 08:45:28;;;;;;;29.90;20.25;;;;;;;13.13;40.38;99882.38;5027629;28;20065;-77
2024/02/07 08:47:54;;;;;;;30.92;25.38;;;;;;;13.68;39.72;99893.53;5026434;28;20091;-77
2024/02/07 08:50:19;;;;;;;20.88;11.63;;;;;;;14.05;39.22;99888.47;5027832;28;20018;-78
2024/02/07 08:52:45;;;;;;;21.38;12.35;;;;;;;14.38;38.61;99890.25;5027911;28;20140;-76
2024/02/07 08:55:11;;;;;;;46.63;27.50;;;;;;;14.49;38.34;99901.16;5026996;28;20061;-77
2024/02/07 08:57:38;;;;;;;23.38;14.60;;;;;;;14.27;38.62;99883.16;5027264;28;20064;-78
2024/02/07 09:00:04;;;;;;;52.38;31.73;;;;;;;14.27;38.03;99867.06;5059560;28;20033;-78
2024/02/07 09:02:30;;;;;;;30.33;20.05;;;;;;;14.77;39.09;99889.44;5027322;28;20067;-78
2024/02/07 09:04:56;;;;;;;37.90;26.25;;;;;;;16.29;36.76;99893.72;5026159;28;20104;-78
2024/02/07 09:07:24;;;;;;;65.32;37.35;;;;;;;16.25;35.07;99884.56;5027477;28;20032;-78
2024/02/07 09:09:50;;;;;;;38.72;22.10;;;;;;;18.72;33.85;99886.38;5027301;28;20100;-79
2024/02/07 09:12:15;;;;;;;21.60;13.82;;;;;;;17.99;31.97;99890.34;5027279;28;20116;-77
2024/02/07 09:14:40;;;;;;;25.48;14.43;;;;;;;18.59;34.06;99873.44;5025589;28;20072;-78
2024/02/07 09:17:06;;;;;;;24.65;17.13;;;;;;;20.56;32.77;99873.22;5027228;28;20132;-78
2024/02/07 09:19:33;;;;;;;22.10;15.02;;;;;;;20.27;32.26;99881.44;5027150;28;20037;-79
2024/02/07 09:21:58;;;;;;;20.40;11.63;;;;;;;17.80;30.89;99862.31;5027341;28;20431;-78
2024/02/07 09:24:23;;;;;;;21.58;14.60;;;;;;;17.85;33.09;99868.50;5026786;28;20125;-78
2024/02/07 09:26:49;;;;;;;19.63;12.55;;;;;;;17.91;32.55;99841.53;5026133;28;20028;-79
2024/02/07 09:29:15;;;;;;;19.85;13.85;;;;;;;17.24;32.70;99857.72;5027319;28;20032;-79
2024/02/07 09:31:40;;;;;;;50.40;29.02;;;;;;;18.44;32.58;99858.91;5025693;28;20037;-78
2024/02/07 09:34:06;;;;;;;24.67;13.77;;;;;;;18.56;33.18;99852.41;5026836;28;20487;-79
2024/02/07 09:36:38;;;;;;;49.92;32.42;;;;;;;18.64;32.01;99831.03;5026617;28;20100;-78
2024/02/07 09:39:03;;;;;;;31.45;15.57;;;;;;;20.35;33.80;99861.84;5026852;28;20499;-79
2024/02/07 09:41:30;;;;;;;25.85;15.07;;;;;;;19.60;30.03;99846.88;5026960;28;20029;-78
2024/02/07 09:43:57;;;;;;;20.05;12.65;;;;;;;18.50;30.96;99850.81;5027526;28;20029;-78
2024/02/07 09:46:25;;;;;;;19.42;12.63;;;;;;;18.30;31.49;99849.00;5046967;28;20032;-77
2024/02/07 09:48:54;;;;;;;18.52;11.77;;;;;;;17.75;31.56;99838.81;5046872;28;20056;-78
2024/02/07 09:51:21;;;;;;;17.55;11.10;;;;;;;17.53;32.37;99839.13;5038607;28;20022;-78
2024/02/07 09:53:47;;;;;;;20.95;11.45;;;;;;;17.51;32.55;99835.91;5026911;28;20132;-78
2024/02/07 09:56:13;;;;;;;20.90;14.38;;;;;;;17.43;32.48;99839.94;5026751;28;20083;-78
2024/02/07 09:58:39;;;;;;;22.35;13.23;;;;;;;17.09;32.82;99828.06;5025466;28;20037;-78
2024/02/07 10:01:09;;;;;;;21.40;12.18;;;;;;;17.20;33.47;99830.50;5025631;28;21007;-78
2024/02/07 10:03:39;;;;;;;28.58;12.95;;;;;;;17.25;33.16;99827.81;5026257;28;20545;-78
2024/02/07 10:06:06;;;;;;;29.02;19.33;;;;;;;16.95;33.35;99817.00;5025549;28;20025;-77
2024/02/07 10:08:31;;;;;;;16.88;10.40;;;;;;;17.14;33.64;99801.13;5026939;28;20033;-77
2024/02/07 10:10:59;;;;;;;12.13;7.50;;;;;;;17.57;33.11;99805.16;5029642;28;20025;-78
2024/02/07 10:13:25;;;;;;;11.45;6.97;;;;;;;17.86;33.32;99796.50;5030688;28;20033;-77
2024/02/07 10:15:51;;;;;;;14.40;7.65;;;;;;;18.40;32.26;99801.16;5030429;28;20049;-78
2024/02/07 10:18:16;;;;;;;13.23;7.72;;;;;;;18.16;32.92;99797.47;5030426;28;20483;-78
2024/02/07 10:20:52;;;;;;;12.45;7.03;;;;;;;18.27;32.13;99782.88;5030187;28;20030;-78
2024/02/07 10:23:18;;;;;;;16.10;6.35;;;;;;;18.07;32.64;99773.75;5030246;28;20037;-78
2024/02/07 10:25:51;;;;;;;10.98;6.80;;;;;;;18.50;32.27;99775.22;5030748;28;20033;-78
2024/02/07 10:28:17;;;;;;;13.40;7.68;;;;;;;18.61;32.05;99771.34;5030340;28;20106;-78
2024/02/07 10:30:43;;;;;;;11.55;6.32;;;;;;;18.87;30.90;99772.81;5030188;28;20464;-78
2024/02/07 10:33:08;;;;;;;11.43;5.95;;;;;;;18.67;31.21;99748.63;5030608;28;20033;-78
2024/02/07 10:35:34;;;;;;;9.57;5.97;;;;;;;18.89;31.66;99760.94;5029790;28;20030;-78
2024/02/07 10:37:59;;;;;;;10.30;5.95;;;;;;;19.09;30.93;99746.47;5029697;28;20044;-79
2024/02/07 10:40:28;;;;;;;9.25;5.28;;;;;;;19.26;31.07;99739.53;5029638;28;20056;-78
2024/02/07 10:42:56;;;;;;;12.00;6.60;;;;;;;19.24;31.27;99735.50;5029454;28;20147;-78
2024/02/07 10:45:21;;;;;;;12.93;6.22;;;;;;;19.03;31.55;99745.69;5029392;28;20021;-78
2024/02/07 10:47:47;;;;;;;14.32;8.65;;;;;;;19.20;32.56;99742.56;5028605;28;20033;-78
2024/02/07 10:50:16;;;;;;;13.18;6.63;;;;;;;19.18;32.95;99732.03;5029628;28;20032;-78
2024/02/07 10:52:42;;;;;;;11.07;6.28;;;;;;;19.14;32.08;99741.81;5029669;28;20502;-77
2024/02/07 10:55:10;;;;;;;8.57;5.97;;;;;;;19.23;31.61;99734.72;5029148;28;20017;-77
2024/02/07 10:57:38;;;;;;;15.15;6.95;;;;;;;19.14;31.92;99728.28;5028181;28;20045;-78
2024/02/07 11:00:05;;;;;;;;;;;;;;;19.48;31.23;99730.16;5030036;28;20029;-78
2024/02/07 11:02:31;;;;;;;8.70;5.40;;;;;;;19.54;31.85;99709.28;5029512;28;19917;-78
2024/02/07 11:04:57;;;;;;;13.45;6.20;;;;;;;19.61;31.25;99707.81;5032004;28;20036;-78
2024/02/07 11:07:24;;;;;;;10.05;5.65;;;;;;;19.63;30.64;99700.22;5028708;28;20616;-77
2024/02/07 11:09:51;;;;;;;10.07;6.03;;;;;;;19.79;30.85;99700.09;5029504;28;20451;-77
2024/02/07 11:12:17;;;;;;;12.98;5.95;;;;;;;19.93;30.30;99711.81;5035260;28;20151;-78
2024/02/07 11:14:45;;;;;;;12.50;5.75;;;;;;;19.90;30.63;99704.28;5041362;28;20540;-78
2024/02/07 11:17:15;;;;;;;10.07;5.88;;;;;;;19.92;30.84;99693.97;5029353;28;20041;-78
2024/02/07 11:19:45;;;;;;;13.32;5.95;;;;;;;20.55;29.69;99697.44;5029222;28;20063;-78
2024/02/07 11:22:32;;;;;;;11.07;5.30;;;;;;;20.20;30.51;99689.53;5034350;28;20026;-78
2024/02/07 11:24:59;;;;;;;11.98;5.75;;;;;;;20.35;29.75;99668.75;5028849;28;20037;-79
2024/02/07 11:27:25;;;;;;;10.50;5.70;;;;;;;20.47;29.71;99669.94;5028746;28;20047;-78
2024/02/07 11:29:51;;;;;;;13.48;6.15;;;;;;;20.16;29.40;99666.03;5029169;28;20402;-78
2024/02/07 11:32:16;;;;;;;8.15;5.32;;;;;;;20.21;29.37;99666.78;5028698;28;20024;-79
2024/02/07 11:34:42;;;;;;;11.80;6.00;;;;;;;20.48;29.75;99654.47;5029258;28;20160;-77
2024/02/07 11:37:11;;;;;;;23.75;14.20;;;;;;;20.58;29.22;99638.09;5030140;28;20086;-78
2024/02/07 11:39:38;;;;;;;12.10;5.80;;;;;;;20.79;29.33;99649.38;5028628;28;20545;-78
2024/02/07 11:42:12;;;;;;;10.68;5.50;;;;;;;20.42;29.11;99637.50;5028388;28;20022;-78
2024/02/07 11:44:52;;;;;;;10.32;5.63;;;;;;;20.73;29.35;99617.25;5028848;28;20117;-78
2024/02/07 11:47:25;;;;;;;10.10;5.15;;;;;;;21.13;28.80;99637.41;5028554;28;20058;-78
2024/02/07 11:50:00;;;;;;;9.82;4.63;;;;;;;20.87;28.70;99639.78;5028700;28;20033;-78
2024/02/07 11:52:33;;;;;;;8.05;4.88;;;;;;;20.91;27.90;99632.66;5028643;28;20494;-78
2024/02/07 11:55:06;;;;;;;8.20;4.35;;;;;;;21.07;28.37;99631.28;5028654;28;20032;-79
2024/02/07 11:57:32;;;;;;;9.43;4.80;;;;;;;21.01;27.91;99632.47;5030029;28;20503;-80
2024/02/07 12:00:02;;;;;;;9.10;4.32;;;;;;;20.68;28.18;99631.72;5028133;28;20469;-79
2024/02/07 12:02:28;;;;;;;9.45;4.50;;;;;;;21.15;27.71;99634.41;5028122;28;20030;-78
2024/02/07 12:04:55;;;;;;;10.45;4.88;;;;;;;21.46;28.04;99623.81;5028141;28;20029;-78
2024/02/07 12:07:20;;;;;;;8.50;4.40;;;;;;;21.90;27.04;99616.88;5028320;28;20069;-78
2024/02/07 12:09:45;;;;;;;11.00;4.45;;;;;;;21.75;26.82;99609.88;5027928;28;20057;-78
2024/02/07 12:12:15;;;;;;;9.27;4.40;;;;;;;22.07;26.75;99608.91;5028087;28;20022;-78
2024/02/07 12:14:41;;;;;;;8.48;4.05;;;;;;;21.93;26.63;99613.56;5027707;28;20915;-78
2024/02/07 12:17:07;;;;;;;6.65;3.45;;;;;;;22.08;27.08;99591.50;5028068;28;20033;-78
2024/02/07 12:19:36;;;;;;;9.15;4.10;;;;;;;22.46;25.66;99599.31;5027660;28;20894;-78
2024/02/07 12:22:04;;;;;;;8.55;3.88;;;;;;;23.11;26.04;99591.72;5027764;28;20095;-78
2024/02/07 12:24:31;;;;;;;8.35;4.30;;;;;;;22.86;25.50;99588.53;5010002;28;20100;-78
2024/02/07 12:27:13;;;;;;;9.02;3.83;;;;;;;23.04;25.32;99594.06;5020158;28;20022;-78
2024/02/07 12:29:40;;;;;;;8.25;4.20;;;;;;;23.20;24.65;99587.09;5027821;28;20048;-78
2024/02/07 12:32:06;;;;;;;7.05;4.05;;;;;;;23.52;24.45;99571.50;5027115;28;20800;-77